createdAt,value
2019-03-04T00:02:42.783Z,99631.46
2019-03-04T00:07:46.786Z,99631.00
2019-03-04T00:12:50.920Z,99611.45
2019-03-04T00:17:54.972Z,99610.88
2019-03-04T00:22:58.999Z,99604.41
2019-03-04T00:28:03.326Z,99565.55
2019-03-04T00:33:07.368Z,99584.39
2019-03-04T00:38:11.456Z,99579.92
2019-03-04T00:43:15.602Z,99569.38
2019-03-04T00:48:19.641Z,99569.38
2019-03-04T00:53:23.665Z,99570.39
2019-03-04T00:58:28.513Z,99567.53
2019-03-04T01:03:32.538Z,99533.30
2019-03-04T01:08:36.597Z,99521.47
2019-03-04T01:13:40.964Z,99511.93
2019-03-04T01:18:44.998Z,99506.58
2019-03-04T01:23:51.442Z,99487.28
2019-03-04T01:28:55.120Z,99469.77
2019-03-04T01:33:59.138Z,99445.09
2019-03-04T01:39:04.125Z,99420.09
2019-03-04T01:44:08.202Z,99421.75
2019-03-04T01:49:12.228Z,99418.91
2019-03-04T01:54:16.311Z,99426.41
2019-03-04T01:59:20.354Z,99432.60
2019-03-04T02:04:24.367Z,99430.73
2019-03-04T02:09:28.454Z,99418.61
2019-03-04T02:14:32.524Z,99430.69
2019-03-04T02:19:36.837Z,99428.90
2019-03-04T02:24:40.874Z,99453.34
2019-03-04T02:29:45.677Z,99468.98
2019-03-04T02:34:49.698Z,99469.33
2019-03-04T02:39:55.815Z,99456.62
2019-03-04T02:44:59.835Z,99446.11
2019-03-04T02:50:04.787Z,99425.16
2019-03-04T02:55:09.117Z,99402.99
2019-03-04T03:00:14.318Z,99396.00
2019-03-04T03:05:18.882Z,99380.34
2019-03-04T03:10:22.926Z,99357.48
2019-03-04T03:15:27.039Z,99344.54
2019-03-04T03:20:31.045Z,99335.45
2019-03-04T03:25:35.353Z,99327.30
2019-03-04T03:30:39.678Z,99294.69
2019-03-04T03:35:43.937Z,99296.66
2019-03-04T03:40:47.976Z,99294.25
2019-03-04T03:45:52.201Z,99285.02
2019-03-04T03:50:56.284Z,99281.99
2019-03-04T03:56:00.330Z,99274.19
2019-03-04T04:01:04.700Z,99282.58
2019-03-04T04:06:08.745Z,99273.27
2019-03-04T04:11:12.769Z,99257.30
2019-03-04T04:16:16.805Z,99235.73
2019-03-04T04:21:21.709Z,99225.49
2019-03-04T04:26:26.185Z,99217.33
2019-03-04T04:31:30.192Z,99203.86
2019-03-04T04:36:34.580Z,99198.86
2019-03-04T04:41:38.865Z,99191.73
2019-03-04T04:46:50.723Z,99185.16
2019-03-04T04:51:54.813Z,99170.75
2019-03-04T04:56:59.122Z,99170.56
2019-03-04T05:02:03.181Z,99175.44
2019-03-04T05:07:07.548Z,99167.96
2019-03-04T05:12:11.538Z,99149.96
2019-03-04T05:17:15.835Z,99149.96
2019-03-04T05:22:20.260Z,99143.54
2019-03-04T05:27:24.339Z,99143.54
2019-03-04T05:32:28.390Z,99129.03
2019-03-04T05:37:32.425Z,99129.03
2019-03-04T05:42:36.466Z,99123.25
2019-03-04T05:47:41.250Z,99113.26
2019-03-04T05:52:45.348Z,99116.75
2019-03-04T05:57:49.703Z,99092.83
2019-03-04T06:02:53.719Z,99092.83
2019-03-04T06:07:57.791Z,99084.73
2019-03-04T06:13:01.912Z,99067.71
2019-03-04T06:18:07.564Z,99049.26
2019-03-04T06:23:11.773Z,99041.40
2019-03-04T06:28:16.168Z,99043.70
2019-03-04T06:33:20.238Z,99050.14
2019-03-04T06:38:24.400Z,99047.38
2019-03-04T06:43:29.617Z,99031.92
2019-03-04T06:48:33.935Z,99027.33
2019-03-04T06:54:04.503Z,99013.71
2019-03-04T06:59:20.466Z,99004.72
2019-03-04T07:04:36.609Z,98999.38
2019-03-04T07:09:40.910Z,98986.38
2019-03-04T07:14:45.220Z,98971.19
2019-03-04T07:20:02.714Z,98940.80
2019-03-04T07:25:06.987Z,98940.80
2019-03-04T07:30:12.317Z,98919.02
2019-03-04T07:35:16.383Z,98894.95
2019-03-04T07:40:20.456Z,98851.73
2019-03-04T07:45:24.801Z,98851.73
2019-03-04T07:50:28.828Z,98845.44
2019-03-04T07:55:32.845Z,98816.25
2019-03-04T08:00:36.976Z,98789.30
2019-03-04T08:05:41.031Z,98826.58
2019-03-04T08:11:34.757Z,98839.23
2019-03-04T08:16:39.119Z,98812.44
2019-03-04T08:21:43.212Z,98762.31
2019-03-04T08:26:47.271Z,98715.77
2019-03-04T08:31:51.320Z,98735.95
2019-03-04T08:36:55.635Z,98697.51
2019-03-04T08:42:00.047Z,98709.29
2019-03-04T08:47:04.066Z,98659.20
2019-03-04T08:52:08.095Z,98660.23
2019-03-04T08:57:12.274Z,98674.98
2019-03-04T09:02:16.276Z,98650.33
2019-03-04T09:07:20.348Z,98632.22
2019-03-04T09:12:24.701Z,98654.09
2019-03-04T09:17:28.717Z,98633.41
2019-03-04T09:22:32.737Z,98596.48
2019-03-04T09:27:36.757Z,98617.62
2019-03-04T09:32:40.997Z,98594.48
2019-03-04T09:37:45.192Z,98567.00
2019-03-04T09:42:49.238Z,98608.29
2019-03-04T09:47:53.296Z,98611.21
2019-03-04T09:52:57.342Z,98603.97
2019-03-04T09:58:01.398Z,98585.45
2019-03-04T10:03:34.983Z,98585.20
2019-03-04T10:08:55.578Z,98561.55
2019-03-04T10:14:30.665Z,98541.95
2019-03-04T10:20:24.949Z,98514.27
2019-03-04T10:25:59.893Z,98490.10
2019-03-04T10:31:26.512Z,98469.41
2019-03-04T10:37:01.821Z,98484.97
2019-03-04T10:42:59.766Z,98504.14
2019-03-04T10:48:03.985Z,98502.36
2019-03-04T10:53:08.002Z,98487.70
2019-03-04T10:58:12.185Z,98510.39
2019-03-04T11:03:16.414Z,98509.50
2019-03-04T11:08:20.418Z,98513.54
2019-03-04T11:13:24.448Z,98530.95
2019-03-04T11:18:28.505Z,98523.05
2019-03-04T11:23:32.507Z,98694.84
2019-03-04T11:28:36.791Z,98702.48
2019-03-04T11:33:41.356Z,98717.47
2019-03-04T11:38:47.734Z,98753.70
2019-03-04T11:43:52.973Z,98745.09
2019-03-04T11:48:57.307Z,98715.13
2019-03-04T11:54:01.649Z,98687.44
2019-03-04T11:59:05.781Z,98665.61
2019-03-04T12:04:10.127Z,98637.16
2019-03-04T12:09:14.233Z,98626.45
2019-03-04T12:14:18.283Z,98650.41
2019-03-04T12:19:22.333Z,98635.97
2019-03-04T12:24:26.628Z,98633.36
2019-03-04T12:29:30.647Z,98616.45
2019-03-04T12:34:34.952Z,98603.49
2019-03-04T12:39:39.030Z,98595.77
2019-03-04T12:44:43.037Z,98578.45
2019-03-04T12:49:47.068Z,98570.27
2019-03-04T12:54:51.056Z,98561.64
2019-03-04T12:59:55.085Z,98545.16
2019-03-04T13:05:01.495Z,98542.45
2019-03-04T13:10:06.811Z,98536.76
2019-03-04T13:15:14.531Z,98525.80
2019-03-04T13:20:18.686Z,98516.74
2019-03-04T13:25:22.748Z,98513.77
2019-03-04T13:30:27.123Z,98513.65
2019-03-04T13:35:31.228Z,98508.05
2019-03-04T13:40:35.268Z,98482.59
2019-03-04T13:45:40.338Z,98484.11
2019-03-04T13:50:44.646Z,98478.31
2019-03-04T13:55:48.734Z,98464.14
2019-03-04T14:00:52.806Z,98456.45
2019-03-04T14:05:56.859Z,98440.69
2019-03-04T14:11:01.141Z,98444.92
2019-03-04T14:16:05.891Z,98441.80
2019-03-04T14:21:10.256Z,98446.09
2019-03-04T14:26:17.414Z,98452.89
2019-03-04T14:31:23.631Z,98473.58
2019-03-04T14:36:29.921Z,98458.22
2019-03-04T14:41:36.047Z,98456.73
2019-03-04T14:46:41.931Z,98469.19
2019-03-04T14:51:49.322Z,98490.56
2019-03-04T14:56:56.899Z,98465.66
2019-03-04T15:02:00.958Z,98481.62
2019-03-04T15:07:06.770Z,98487.52
2019-03-04T15:12:11.040Z,98469.09
2019-03-04T15:17:29.769Z,98461.14
2019-03-04T15:22:35.251Z,98460.82
2019-03-04T15:27:39.439Z,98452.79
2019-03-04T15:32:43.499Z,98453.95
2019-03-04T15:37:47.962Z,98442.56
2019-03-04T15:42:52.021Z,98436.28
2019-03-04T15:47:56.218Z,98446.72
2019-03-04T15:53:00.314Z,98432.84
2019-03-04T15:58:04.576Z,98456.02
2019-03-04T16:03:08.771Z,98458.44
2019-03-04T16:08:13.292Z,98546.20
2019-03-04T16:13:17.414Z,98691.90
2019-03-04T16:18:23.392Z,98697.75
2019-03-04T16:23:29.023Z,98702.88
2019-03-04T16:28:34.957Z,98712.48
2019-03-04T16:33:39.520Z,98725.28
2019-03-04T16:38:45.450Z,98730.38
2019-03-04T16:43:52.568Z,98735.98
2019-03-04T16:48:57.797Z,98743.81
2019-03-04T16:54:03.202Z,98767.27
2019-03-04T16:59:07.568Z,98779.45
2019-03-04T17:04:11.970Z,98752.19
2019-03-04T17:09:18.004Z,98749.13
2019-03-04T17:14:22.054Z,98758.12
2019-03-04T17:19:26.043Z,98778.23
2019-03-04T17:24:30.125Z,98791.72
2019-03-04T17:29:34.189Z,98808.41
2019-03-04T17:34:38.406Z,98817.72
2019-03-04T17:39:42.488Z,98825.95
2019-03-04T17:44:46.566Z,98838.81
2019-03-04T17:49:50.580Z,98841.13
2019-03-04T17:54:54.632Z,98848.08
2019-03-04T17:59:58.663Z,98858.65
2019-03-04T18:05:02.700Z,98859.98
2019-03-04T18:10:09.522Z,98865.17
2019-03-04T18:15:16.163Z,98866.41
2019-03-04T18:20:20.694Z,98871.69
2019-03-04T18:25:29.429Z,98878.45
2019-03-04T18:31:04.407Z,98886.30
2019-03-04T18:36:32.342Z,98891.34
2019-03-04T18:42:25.844Z,98899.11
2019-03-04T18:47:52.206Z,98901.08
2019-03-04T18:52:56.515Z,98906.55
2019-03-04T18:58:01.995Z,98908.04
2019-03-04T19:03:06.081Z,98906.50
2019-03-04T19:08:10.235Z,98919.67
2019-03-04T19:13:15.739Z,98925.59
2019-03-04T19:18:22.434Z,98931.76
2019-03-04T19:23:31.175Z,98954.64
2019-03-04T19:28:40.972Z,98950.97
2019-03-04T19:33:49.076Z,98959.58
2019-03-04T19:39:02.191Z,98963.64
2019-03-04T19:44:10.198Z,98968.58
2019-03-04T19:49:18.657Z,98967.82
2019-03-04T19:54:30.972Z,98987.16
2019-03-04T19:59:36.174Z,98995.30
2019-03-04T20:04:41.261Z,98999.31
2019-03-04T20:09:47.577Z,99004.75
2019-03-04T20:14:52.493Z,99011.16
2019-03-04T20:19:56.926Z,99026.42
2019-03-04T20:25:00.988Z,99028.70
2019-03-04T20:30:07.070Z,99027.23
2019-03-04T20:35:11.999Z,99032.92
2019-03-04T20:40:16.193Z,99038.13
2019-03-04T20:45:20.649Z,99049.52
2019-03-04T20:50:25.000Z,99062.70
2019-03-04T20:55:29.338Z,99072.28
2019-03-04T21:00:33.698Z,99081.43
2019-03-04T21:05:37.851Z,99079.16
2019-03-04T21:10:50.887Z,99093.45
2019-03-04T21:15:56.292Z,99101.98
2019-03-04T21:21:03.624Z,99120.53
2019-03-04T21:26:38.681Z,99113.61
2019-03-04T21:32:02.641Z,99124.61
2019-03-04T21:37:23.115Z,99133.96
2019-03-04T21:42:32.012Z,99136.58
2019-03-04T21:47:40.228Z,99155.09
2019-03-04T21:53:14.333Z,99150.56
2019-03-04T21:58:18.589Z,99165.94
2019-03-04T22:03:28.497Z,99170.50
2019-03-04T22:08:33.174Z,99180.18
2019-03-04T22:13:38.399Z,99191.55
2019-03-04T22:18:42.485Z,99201.14
2019-03-04T22:23:46.629Z,99200.61
2019-03-04T22:28:50.658Z,99216.91
2019-03-04T22:33:54.669Z,99228.94
2019-03-04T22:38:59.275Z,99237.86
2019-03-04T22:44:03.466Z,99240.36
2019-03-04T22:49:07.477Z,99265.57
2019-03-04T22:54:12.651Z,99262.80
2019-03-04T22:59:16.762Z,99273.14
2019-03-04T23:04:32.775Z,99278.45
2019-03-04T23:09:48.366Z,99283.93
2019-03-04T23:14:52.805Z,99288.77
2019-03-04T23:19:56.822Z,99288.69
2019-03-04T23:25:00.934Z,99287.30
2019-03-04T23:30:06.907Z,99294.88
2019-03-04T23:35:10.984Z,99300.78
2019-03-04T23:40:15.628Z,99302.58
2019-03-04T23:45:19.612Z,99312.81
2019-03-04T23:50:23.690Z,99314.73
2019-03-04T23:55:27.792Z,99314.64
